Lacamp, Louisiana
Current Conditions -  °F | °C
As of 6:54 PM on Thursday 27 Nov 2014 (Local Time) from KBKB Reporting Station
Clear Clear  
Wind Chill: 44°   Ceiling: Unl
Heat Index: 44°   Visibility: 10mi
Dew Point: 35°   Wind: 0mph
Humidity: 71%   Direction: NA
Pressure: 30.43"   Gusts: NA
Location:  31.16°N, 92.91°W
Report Text: KBKB 280054Z AUTO 00000KT 10SM CLR 07/02 A3043 RMK AO2 SLP335 T00670017 $
Loading
Personal Weather Stations






























Interactive Weather Map New forecast layout! Learn more

10-Day Weather Forecast

Advertisements
Track Severe Weather on mobile